Aérodrome :
LOGIN :

S'inscrire | Disclaimer

   EN    FR    IT 

 










Légende :    VFR   VFR Marginal   IFR   IFR Intensif   IFR Très Intensif
Visi : 
Plafond : 
>= 8 km
>= 3000ft
5 à 8 km
1000 à 3000 ft
1500m à 5 km
500 à 1000 ft
800 à 1500m
200 à 500 ft
< 800m
< 200 ft
Symboles :   Orages  Brouillard  Fortes neiges  Fortes précipitations  Vent > 20 kt
SIGMETs :   Divers  Orages  Givrage  Turbulence  Onde Orograph.  Cendres Volcan.







- Altitude de l'aérodrome : 17 ft
- Code IATA : MPL
- Voir les cartes d'approche


LFMT - Montpellier Méditerranée

DERNIER METAR :
  • 210630Z AUTO 28009KT CAVOK 17/10 Q1013 NOSIG

METARs EXPIRÉS :
  • 210600Z AUTO 28010KT CAVOK 16/10 Q1013 NOSIG
  • 210530Z AUTO 28010KT CAVOK 15/09 Q1013 NOSIG
  • 210500Z AUTO 29007KT CAVOK 14/09 Q1013 NOSIG
  • 210430Z AUTO 29007KT CAVOK 13/09 Q1013 NOSIG
  • 210400Z AUTO 28005KT CAVOK 13/08 Q1012 NOSIG

TAF TAF LFMT
Valide du 21 à 03h jusqu'au 22 à 03h UTC


210200Z 2103/2203 30012KT CAVOK
TEMPO 2110/2115 20010KT SCT050TCU
ATIS : +33 4 67 13 11 70
Pas de NOTAMs connus pour ce terrain.
1 SIGMET publié pour la FIR Marseille (LFMM) :
 
Onde orographique forte
LFMM SIGMET 1 VALID 210400/210800 LFPW
LFMM MARSEILLE FIR/UIR SEV MTW FCST E OF E00900 SFC/FL100 STNR NC=



MET'MAP, la Météo Aéronautique d'un coup d'oeil ! - Copyright ORBIFLY Décembre 2007 - Disclaimer

ORBIFLY MET'MAP TEAM :

Programmation & Développement : Alexandra Zaïnal
Conception & Développement : Baudouin d'Aumeries
Co-Programmation & Développement : Marc-Olivier Méhu
Soutien technique & logistique : Manuel Goepfert

Contact : metmap@orbifly.com




SOURCES & CREDITS :

   NOAA